createdAt,value
2022-12-09T00:01:17.862Z,60.49
2022-12-09T00:03:46.536Z,60.40
2022-12-09T00:06:17.449Z,60.42
2022-12-09T00:08:45.283Z,60.29
2022-12-09T00:11:13.861Z,59.84
2022-12-09T00:13:41.696Z,59.96
2022-12-09T00:16:12.635Z,59.97
2022-12-09T00:18:40.907Z,59.94
2022-12-09T00:21:15.560Z,60.40
2022-12-09T00:23:43.414Z,60.22
2022-12-09T00:26:11.545Z,60.36
2022-12-09T00:28:40.034Z,60.37
2022-12-09T00:31:10.484Z,60.19
2022-12-09T00:33:39.018Z,60.10
2022-12-09T00:36:09.343Z,59.80
2022-12-09T00:38:37.782Z,59.47
2022-12-09T00:41:06.092Z,59.42
2022-12-09T00:43:34.408Z,59.45
2022-12-09T00:46:02.861Z,59.65
2022-12-09T00:48:31.020Z,59.40
2022-12-09T00:50:59.677Z,59.36
2022-12-09T00:53:27.913Z,59.66
2022-12-09T00:55:55.804Z,59.42
2022-12-09T00:58:24.081Z,59.54
2022-12-09T01:00:54.279Z,59.45
2022-12-09T01:03:22.293Z,59.38
2022-12-09T01:05:50.517Z,59.19
2022-12-09T01:08:18.691Z,59.19
2022-12-09T01:10:46.841Z,59.08
2022-12-09T01:13:15.834Z,59.13
2022-12-09T01:15:44.611Z,58.88
2022-12-09T01:18:13.168Z,58.96
2022-12-09T01:20:40.990Z,58.73
2022-12-09T01:23:08.760Z,58.86
2022-12-09T01:25:38.343Z,59.02
2022-12-09T01:28:06.184Z,58.77
2022-12-09T01:30:33.834Z,58.52
2022-12-09T01:33:01.855Z,58.81
2022-12-09T01:35:29.971Z,58.65
2022-12-09T01:37:57.927Z,58.70
2022-12-09T01:40:25.792Z,58.46
2022-12-09T01:42:54.240Z,58.60
2022-12-09T01:45:22.492Z,58.61
2022-12-09T01:48:00.337Z,58.83
2022-12-09T01:50:29.475Z,58.33
2022-12-09T01:52:57.891Z,58.41
2022-12-09T01:55:27.908Z,58.31
2022-12-09T01:57:55.522Z,58.29
2022-12-09T02:00:23.513Z,58.08
2022-12-09T02:02:53.466Z,58.49
2022-12-09T02:05:24.579Z,58.55
2022-12-09T02:07:58.755Z,58.54
2022-12-09T02:10:28.046Z,58.56
2022-12-09T02:13:22.587Z,58.47
2022-12-09T02:16:03.305Z,58.29
2022-12-09T02:18:37.295Z,58.33
2022-12-09T02:21:12.443Z,58.04
2022-12-09T02:23:51.840Z,58.04
2022-12-09T02:26:38.145Z,58.40
2022-12-09T02:29:30.571Z,58.07
2022-12-09T02:32:07.667Z,58.13
2022-12-09T02:34:44.295Z,58.35
2022-12-09T02:37:25.437Z,58.14
2022-12-09T02:39:58.627Z,58.30
2022-12-09T02:42:32.355Z,58.34
2022-12-09T02:45:05.100Z,58.59
2022-12-09T02:47:36.923Z,58.47
2022-12-09T02:50:13.277Z,58.18
2022-12-09T02:52:42.821Z,58.18
2022-12-09T02:55:15.787Z,58.47
2022-12-09T02:57:43.577Z,58.19
2022-12-09T03:00:15.638Z,58.15
2022-12-09T03:02:47.836Z,58.31
2022-12-09T03:05:26.149Z,58.31
2022-12-09T03:08:07.112Z,58.20
2022-12-09T03:10:43.586Z,58.25
2022-12-09T03:13:50.093Z,58.09
2022-12-09T03:16:29.851Z,58.24
2022-12-09T03:19:06.957Z,58.28
2022-12-09T03:21:38.844Z,58.58
2022-12-09T03:24:10.437Z,58.16
2022-12-09T03:26:39.556Z,58.35
2022-12-09T03:29:13.680Z,58.31
2022-12-09T03:31:43.164Z,57.97
2022-12-09T03:34:16.289Z,58.41
2022-12-09T03:36:48.591Z,58.13
2022-12-09T03:39:20.592Z,58.21
2022-12-09T03:41:52.880Z,58.25
2022-12-09T03:44:23.471Z,58.11
2022-12-09T03:46:51.652Z,58.36
2022-12-09T03:49:19.575Z,58.17
2022-12-09T03:51:55.084Z,58.07
2022-12-09T03:54:35.683Z,58.12
2022-12-09T03:57:04.763Z,57.95
2022-12-09T03:59:34.922Z,57.85
2022-12-09T04:02:06.064Z,57.80
2022-12-09T04:04:38.661Z,57.89
2022-12-09T04:07:06.948Z,57.72
2022-12-09T04:09:35.935Z,58.03
2022-12-09T04:12:04.190Z,57.86
2022-12-09T04:14:32.326Z,57.71
2022-12-09T04:17:00.273Z,58.21
2022-12-09T04:19:28.372Z,58.09
2022-12-09T04:21:56.190Z,57.94
2022-12-09T04:24:24.327Z,57.98
2022-12-09T04:26:52.168Z,58.07
2022-12-09T04:29:19.984Z,58.12
2022-12-09T04:31:47.946Z,58.05
2022-12-09T04:34:16.266Z,58.00
2022-12-09T04:36:44.405Z,57.93
2022-12-09T04:39:12.142Z,57.95
2022-12-09T04:41:40.063Z,57.62
2022-12-09T04:44:07.874Z,57.76
2022-12-09T04:46:35.847Z,57.53
2022-12-09T04:49:04.177Z,57.46
2022-12-09T04:51:39.119Z,57.71
2022-12-09T04:54:12.583Z,57.56
2022-12-09T04:56:41.102Z,57.30
2022-12-09T04:59:08.926Z,57.10
2022-12-09T05:01:37.090Z,57.32
2022-12-09T05:04:05.447Z,56.91
2022-12-09T05:06:33.648Z,56.91
2022-12-09T05:09:02.182Z,56.95
2022-12-09T05:11:30.452Z,56.75
2022-12-09T05:13:58.529Z,57.16
2022-12-09T05:16:26.461Z,56.82
2022-12-09T05:18:54.723Z,56.75
2022-12-09T05:21:22.566Z,56.83
2022-12-09T05:23:50.416Z,56.75
2022-12-09T05:26:20.801Z,56.48
2022-12-09T05:28:49.386Z,56.76
2022-12-09T05:31:20.059Z,56.45
2022-12-09T05:33:49.662Z,56.27
2022-12-09T05:36:20.144Z,56.69
2022-12-09T05:38:49.067Z,56.60
2022-12-09T05:41:18.603Z,56.63
2022-12-09T05:43:46.636Z,56.77
2022-12-09T05:46:15.200Z,56.90
2022-12-09T05:48:44.329Z,56.52
2022-12-09T05:51:16.803Z,57.06
2022-12-09T05:53:44.596Z,56.88
2022-12-09T05:56:16.163Z,56.92
2022-12-09T05:58:44.412Z,57.11
2022-12-09T06:01:13.089Z,57.16
2022-12-09T06:03:45.728Z,57.30
2022-12-09T06:06:16.344Z,57.07
2022-12-09T06:08:45.926Z,57.03
2022-12-09T06:11:16.832Z,56.88
2022-12-09T06:13:45.930Z,56.59
2022-12-09T06:16:15.425Z,56.67
2022-12-09T06:18:43.633Z,57.10
2022-12-09T06:21:13.416Z,56.91
2022-12-09T06:23:42.905Z,57.13
2022-12-09T06:26:29.165Z,57.30
2022-12-09T06:28:58.426Z,57.26
2022-12-09T06:31:28.306Z,56.95
2022-12-09T06:33:58.401Z,56.64
2022-12-09T06:36:28.890Z,56.69
2022-12-09T06:39:05.945Z,56.29
2022-12-09T06:41:42.148Z,56.87
2022-12-09T06:44:15.870Z,56.67
2022-12-09T06:46:49.549Z,56.01
2022-12-09T06:49:17.531Z,55.78
2022-12-09T06:51:46.222Z,55.78
2022-12-09T06:54:14.156Z,55.59
2022-12-09T06:56:42.515Z,55.82
2022-12-09T06:59:11.255Z,55.36
2022-12-09T07:01:39.862Z,55.73
2022-12-09T07:04:08.411Z,55.20
2022-12-09T07:06:39.260Z,55.41
2022-12-09T07:09:08.913Z,55.14
2022-12-09T07:11:37.867Z,55.05
2022-12-09T07:14:06.208Z,54.48
2022-12-09T07:16:35.150Z,54.55
2022-12-09T07:19:04.386Z,54.78
2022-12-09T07:21:32.638Z,54.08
2022-12-09T07:24:02.875Z,53.67
2022-12-09T07:26:32.775Z,53.31
2022-12-09T07:29:05.232Z,52.79
2022-12-09T07:31:33.984Z,52.42
2022-12-09T07:34:04.104Z,52.63
2022-12-09T07:36:35.129Z,52.13
2022-12-09T07:39:07.092Z,52.43
2022-12-09T07:41:35.333Z,52.37
2022-12-09T07:44:04.103Z,51.45
2022-12-09T07:46:32.445Z,51.30
2022-12-09T07:49:02.742Z,51.38
2022-12-09T07:51:30.968Z,50.83
2022-12-09T07:53:59.465Z,49.91
2022-12-09T07:56:29.347Z,50.26
2022-12-09T07:58:57.599Z,50.97
2022-12-09T08:01:28.523Z,51.87
2022-12-09T08:03:57.308Z,51.84
2022-12-09T08:06:28.215Z,51.64
2022-12-09T08:09:01.849Z,51.01
2022-12-09T08:11:31.865Z,50.81
2022-12-09T08:14:08.987Z,49.86
2022-12-09T08:16:40.457Z,50.41
2022-12-09T08:19:09.027Z,51.28
2022-12-09T08:21:37.063Z,50.10
2022-12-09T08:24:07.733Z,50.33
2022-12-09T08:26:40.011Z,50.53
2022-12-09T08:29:13.597Z,50.15
2022-12-09T08:31:44.093Z,55.95
2022-12-09T08:34:13.051Z,53.08
2022-12-09T08:36:42.358Z,52.35
2022-12-09T08:39:11.596Z,51.92
2022-12-09T08:41:40.254Z,49.96
2022-12-09T08:44:17.392Z,50.17
2022-12-09T08:46:48.303Z,51.21
2022-12-09T08:49:22.342Z,50.65
2022-12-09T08:51:53.462Z,49.93
2022-12-09T08:54:21.768Z,50.54
2022-12-09T08:56:52.261Z,50.70
2022-12-09T08:59:20.325Z,49.96
2022-12-09T09:01:48.479Z,49.58
2022-12-09T09:04:20.472Z,50.03
2022-12-09T09:06:50.582Z,50.02
2022-12-09T09:09:20.304Z,49.98
2022-12-09T09:11:48.927Z,49.43
2022-12-09T09:14:17.433Z,49.46
2022-12-09T09:16:46.246Z,49.17
2022-12-09T09:19:17.610Z,49.29
2022-12-09T09:21:45.775Z,48.74
2022-12-09T09:24:16.745Z,48.70
2022-12-09T09:26:45.670Z,48.77
2022-12-09T09:29:16.009Z,48.40
2022-12-09T09:31:44.831Z,49.00
2022-12-09T09:34:13.193Z,48.40
2022-12-09T09:36:41.365Z,48.53
2022-12-09T09:39:09.787Z,48.07
2022-12-09T09:41:54.698Z,48.36
2022-12-09T09:44:25.807Z,48.21
2022-12-09T09:46:56.653Z,48.33
2022-12-09T09:49:30.913Z,48.25
2022-12-09T09:52:07.252Z,48.09
2022-12-09T09:54:35.161Z,48.27
2022-12-09T09:57:12.618Z,48.17
2022-12-09T10:00:07.268Z,47.97
2022-12-09T10:03:05.077Z,47.44
2022-12-09T10:05:41.328Z,48.39
2022-12-09T10:08:25.087Z,48.28
2022-12-09T10:11:09.122Z,48.60
2022-12-09T10:13:45.236Z,48.18
2022-12-09T10:16:25.115Z,48.36
2022-12-09T10:19:14.779Z,48.48
2022-12-09T10:21:45.525Z,48.73
2022-12-09T10:24:31.764Z,48.85
2022-12-09T10:27:12.781Z,49.32
2022-12-09T10:30:02.896Z,49.17
2022-12-09T10:32:33.939Z,49.04
2022-12-09T10:35:14.318Z,48.74
2022-12-09T10:37:42.347Z,48.76
2022-12-09T10:40:10.923Z,48.71
2022-12-09T10:43:05.872Z,48.15
2022-12-09T10:46:08.023Z,48.23
2022-12-09T10:48:34.242Z,48.00
2022-12-09T10:51:12.288Z,48.14
2022-12-09T10:54:02.925Z,47.72
2022-12-09T10:56:36.937Z,47.30
2022-12-09T10:59:13.881Z,46.88
2022-12-09T11:01:49.666Z,46.80
2022-12-09T11:04:28.136Z,47.17
2022-12-09T11:07:07.936Z,46.74
2022-12-09T11:09:39.534Z,46.21
2022-12-09T11:12:19.241Z,46.58
2022-12-09T11:14:53.432Z,47.00
2022-12-09T11:17:28.582Z,46.83
2022-12-09T11:20:26.291Z,46.49
2022-12-09T11:23:14.405Z,46.99
2022-12-09T11:26:00.243Z,47.22
2022-12-09T11:28:36.170Z,46.81
2022-12-09T11:31:32.758Z,46.59
2022-12-09T11:34:05.444Z,46.15
2022-12-09T11:36:37.274Z,46.24
2022-12-09T11:39:25.552Z,45.01
2022-12-09T11:42:17.377Z,45.69
2022-12-09T11:45:02.996Z,45.46
2022-12-09T11:48:21.130Z,45.67
2022-12-09T11:50:33.420Z,46.11
2022-12-09T11:53:11.133Z,45.95
2022-12-09T11:55:46.392Z,45.62
2022-12-09T11:58:18.358Z,45.79
2022-12-09T12:00:55.730Z,45.13
2022-12-09T12:03:36.678Z,44.84
2022-12-09T12:06:08.743Z,44.81
2022-12-09T12:08:46.722Z,44.82
2022-12-09T12:11:30.955Z,43.94
2022-12-09T12:14:13.034Z,44.44
2022-12-09T12:17:09.235Z,44.10
2022-12-09T12:19:42.134Z,44.77
2022-12-09T12:22:09.667Z,44.95
2022-12-09T12:25:17.796Z,44.63
2022-12-09T12:28:01.572Z,44.69
2022-12-09T12:30:59.963Z,44.46
2022-12-09T12:36:40.084Z,44.97
2022-12-09T12:39:28.475Z,45.40
2022-12-09T12:42:25.692Z,44.85
2022-12-09T12:45:31.439Z,45.41
2022-12-09T12:48:08.906Z,45.17
2022-12-09T12:50:57.829Z,45.15
2022-12-09T12:53:34.595Z,45.35
2022-12-09T12:56:07.885Z,45.42
2022-12-09T12:59:07.984Z,45.82
2022-12-09T13:02:01.092Z,46.92
2022-12-09T13:04:44.423Z,51.01
2022-12-09T13:07:20.948Z,47.74
2022-12-09T13:09:48.797Z,47.00
2022-12-09T13:12:45.481Z,46.76
2022-12-09T13:15:17.827Z,47.16
2022-12-09T13:17:48.441Z,47.14
2022-12-09T13:20:30.197Z,47.30
2022-12-09T13:23:12.917Z,47.33
2022-12-09T13:26:20.276Z,47.83
2022-12-09T13:28:52.028Z,47.91
2022-12-09T13:31:29.413Z,47.83
2022-12-09T13:34:26.120Z,47.71
2022-12-09T13:36:53.810Z,47.84
2022-12-09T13:39:39.993Z,47.44
2022-12-09T13:42:46.326Z,47.48
2022-12-09T13:45:16.430Z,47.94
2022-12-09T13:47:44.290Z,47.88
2022-12-09T13:50:28.958Z,48.00
2022-12-09T13:53:34.351Z,47.99
2022-12-09T13:56:17.776Z,47.91
2022-12-09T13:59:05.150Z,47.92
2022-12-09T14:01:42.029Z,47.66
2022-12-09T14:04:18.861Z,47.73
2022-12-09T14:06:46.403Z,47.74
2022-12-09T14:09:39.293Z,47.88
2022-12-09T14:12:11.906Z,47.67
2022-12-09T14:14:52.759Z,47.94
2022-12-09T14:17:27.224Z,47.97
2022-12-09T14:20:04.164Z,47.73
2022-12-09T14:22:33.734Z,46.55
2022-12-09T14:25:26.509Z,47.21
2022-12-09T14:28:24.451Z,47.06
2022-12-09T14:31:02.008Z,47.08
2022-12-09T14:33:47.312Z,46.92
2022-12-09T14:36:14.905Z,47.07
2022-12-09T14:41:53.311Z,46.67
2022-12-09T14:44:39.064Z,46.96
2022-12-09T14:47:28.495Z,47.08
2022-12-09T14:50:05.909Z,47.23
2022-12-09T14:52:34.719Z,47.07
2022-12-09T14:55:09.381Z,46.18
2022-12-09T14:57:41.689Z,45.74
2022-12-09T15:00:36.220Z,45.15
2022-12-09T15:03:44.863Z,45.59
2022-12-09T15:06:16.804Z,45.88
2022-12-09T15:08:44.701Z,45.77
2022-12-09T15:11:19.503Z,45.81
2022-12-09T15:13:50.560Z,46.22
2022-12-09T15:16:21.532Z,45.79
2022-12-09T15:18:51.331Z,46.32
2022-12-09T15:21:29.608Z,46.17
2022-12-09T15:24:00.867Z,46.20
2022-12-09T15:26:33.688Z,45.06
2022-12-09T15:29:05.374Z,44.84
2022-12-09T15:31:34.698Z,44.82
2022-12-09T15:34:14.804Z,44.78
2022-12-09T15:36:47.794Z,44.51
2022-12-09T15:39:18.331Z,44.71
2022-12-09T15:42:07.271Z,44.59
2022-12-09T15:44:44.600Z,44.06
2022-12-09T15:47:18.478Z,44.70
2022-12-09T15:49:53.721Z,44.91
2022-12-09T15:52:27.649Z,44.66
2022-12-09T15:54:56.872Z,45.11
2022-12-09T15:57:28.163Z,44.92
2022-12-09T15:59:58.487Z,44.83
2022-12-09T16:02:29.875Z,43.71
2022-12-09T16:05:02.011Z,44.79
2022-12-09T16:07:33.276Z,45.05
2022-12-09T16:10:01.012Z,43.99
2022-12-09T16:12:32.740Z,44.62
2022-12-09T16:15:02.308Z,43.97
2022-12-09T16:17:38.564Z,43.46
2022-12-09T16:20:35.976Z,43.95
2022-12-09T16:23:06.237Z,44.60
2022-12-09T16:25:45.044Z,43.53
2022-12-09T16:28:22.811Z,43.83
2022-12-09T16:31:01.874Z,43.60
2022-12-09T16:33:35.497Z,44.54
2022-12-09T16:36:06.683Z,44.30
2022-12-09T16:38:37.009Z,43.93
2022-12-09T16:41:08.228Z,43.98
2022-12-09T16:43:36.900Z,44.10
2022-12-09T16:46:14.072Z,43.85
2022-12-09T16:48:42.780Z,43.64
2022-12-09T16:51:11.799Z,42.95
2022-12-09T16:53:44.663Z,44.01
2022-12-09T16:56:25.367Z,43.49
2022-12-09T16:58:54.344Z,43.82
2022-12-09T17:01:29.693Z,43.27
2022-12-09T17:04:02.838Z,43.32
2022-12-09T17:06:32.150Z,43.49
2022-12-09T17:08:59.845Z,43.39
2022-12-09T17:11:27.770Z,43.82
2022-12-09T17:13:55.452Z,43.42
2022-12-09T17:16:25.853Z,43.49
2022-12-09T17:18:53.748Z,43.85
2022-12-09T17:21:21.571Z,43.64
2022-12-09T17:23:49.317Z,43.67
2022-12-09T17:26:19.278Z,43.93
2022-12-09T17:28:49.187Z,43.92
2022-12-09T17:31:22.474Z,43.43
2022-12-09T17:33:51.413Z,43.96
2022-12-09T17:36:20.096Z,43.92
2022-12-09T17:38:48.148Z,44.27
2022-12-09T17:41:20.847Z,44.26
2022-12-09T17:43:48.652Z,44.61
2022-12-09T17:46:16.524Z,44.79
2022-12-09T17:48:44.505Z,44.46
2022-12-09T17:51:14.836Z,44.28
2022-12-09T17:53:43.334Z,44.43
2022-12-09T17:56:16.119Z,44.36
2022-12-09T17:58:44.492Z,44.09
2022-12-09T18:01:14.967Z,44.37
2022-12-09T18:03:56.040Z,44.37
2022-12-09T18:06:26.116Z,44.03
2022-12-09T18:08:54.783Z,44.15
2022-12-09T18:11:23.038Z,44.30
2022-12-09T18:13:51.138Z,44.84
2022-12-09T18:16:19.413Z,44.34
2022-12-09T18:18:47.554Z,44.70
2022-12-09T18:21:16.195Z,44.42
2022-12-09T18:23:44.267Z,44.52
2022-12-09T18:26:14.140Z,44.51
2022-12-09T18:28:44.735Z,44.03
2022-12-09T18:31:19.347Z,43.51
2022-12-09T18:33:48.341Z,44.04
2022-12-09T18:36:18.891Z,43.81
2022-12-09T18:38:47.342Z,44.10
2022-12-09T18:41:21.321Z,43.82
2022-12-09T18:43:51.431Z,44.22
2022-12-09T18:46:25.411Z,43.85
2022-12-09T18:49:02.180Z,44.16
2022-12-09T18:51:29.957Z,44.81
2022-12-09T18:53:59.004Z,44.67
2022-12-09T18:56:27.458Z,44.39
2022-12-09T18:59:11.777Z,44.32
2022-12-09T19:01:42.085Z,44.14
2022-12-09T19:04:23.656Z,44.50
2022-12-09T19:06:54.835Z,44.25
2022-12-09T19:09:35.128Z,44.27
2022-12-09T19:12:37.981Z,44.95
2022-12-09T19:14:52.784Z,45.04
2022-12-09T19:17:21.561Z,44.63
2022-12-09T19:19:49.901Z,44.83
2022-12-09T19:22:17.529Z,44.53
2022-12-09T19:24:45.362Z,44.67
2022-12-09T19:27:13.520Z,44.67
2022-12-09T19:29:41.515Z,44.79
2022-12-09T19:32:29.383Z,45.33
2022-12-09T19:34:56.709Z,45.22
2022-12-09T19:37:24.480Z,45.65
2022-12-09T19:39:52.446Z,45.51
2022-12-09T19:42:20.237Z,45.37
2022-12-09T19:45:10.452Z,46.20
2022-12-09T19:47:38.594Z,48.04
2022-12-09T19:50:07.577Z,47.36
2022-12-09T19:52:35.465Z,47.19
2022-12-09T19:55:04.464Z,47.34
2022-12-09T19:57:32.202Z,47.16
2022-12-09T19:59:59.831Z,47.42
2022-12-09T20:02:27.473Z,47.42
2022-12-09T20:04:55.196Z,47.10
2022-12-09T20:07:22.918Z,47.34
2022-12-09T20:09:50.653Z,47.09
2022-12-09T20:12:18.544Z,47.07
2022-12-09T20:14:46.299Z,47.00
2022-12-09T20:17:13.964Z,47.56
2022-12-09T20:19:44.081Z,47.07
2022-12-09T20:22:11.777Z,46.87
2022-12-09T20:24:39.509Z,46.41
2022-12-09T20:27:07.211Z,46.62
2022-12-09T20:29:37.880Z,46.71
2022-12-09T20:32:08.445Z,46.81
2022-12-09T20:34:36.424Z,46.62
2022-12-09T20:37:04.635Z,46.50
2022-12-09T20:39:32.481Z,46.25
2022-12-09T20:42:00.742Z,46.10
2022-12-09T20:44:28.513Z,46.17
2022-12-09T20:46:57.043Z,46.48
2022-12-09T20:49:27.150Z,47.63
2022-12-09T20:51:55.764Z,48.28
2022-12-09T20:54:23.504Z,48.11
2022-12-09T20:56:51.658Z,47.28
2022-12-09T20:59:19.239Z,47.17
2022-12-09T21:01:47.513Z,48.63
2022-12-09T21:04:15.811Z,48.23
2022-12-09T21:06:44.053Z,46.96
2022-12-09T21:09:17.549Z,46.77
2022-12-09T21:11:46.822Z,46.39
2022-12-09T21:14:18.373Z,46.09
2022-12-09T21:16:47.399Z,46.14
2022-12-09T21:19:17.088Z,45.96
2022-12-09T21:21:48.177Z,46.18
2022-12-09T21:24:16.655Z,46.17
2022-12-09T21:26:47.308Z,46.08
2022-12-09T21:29:15.638Z,45.86
2022-12-09T21:31:44.463Z,45.85
2022-12-09T21:34:12.829Z,45.80
2022-12-09T21:36:44.317Z,46.28
2022-12-09T21:39:14.092Z,45.87
2022-12-09T21:41:42.794Z,45.83
2022-12-09T21:44:18.105Z,46.54
2022-12-09T21:46:46.418Z,45.90
2022-12-09T21:49:14.910Z,46.14
2022-12-09T21:51:43.630Z,46.44
2022-12-09T21:54:11.983Z,46.55
2022-12-09T21:56:40.072Z,46.45
2022-12-09T21:59:08.398Z,46.69
2022-12-09T22:01:39.031Z,46.46
2022-12-09T22:04:10.059Z,46.78
2022-12-09T22:06:39.124Z,46.71
2022-12-09T22:09:08.054Z,46.54
2022-12-09T22:11:37.429Z,46.74
2022-12-09T22:14:06.403Z,46.58
2022-12-09T22:16:40.811Z,46.92
2022-12-09T22:19:11.042Z,46.97
2022-12-09T22:21:39.306Z,46.92
2022-12-09T22:24:08.414Z,46.64
2022-12-09T22:26:36.043Z,46.48
2022-12-09T22:29:05.694Z,46.82
2022-12-09T22:31:37.904Z,46.79
2022-12-09T22:34:13.117Z,46.68
2022-12-09T22:36:41.262Z,46.72
2022-12-09T22:39:13.645Z,46.67
2022-12-09T22:41:41.930Z,46.59
2022-12-09T22:44:12.736Z,46.55
2022-12-09T22:46:42.573Z,47.08
2022-12-09T22:49:12.362Z,47.05
2022-12-09T22:51:41.603Z,46.97
2022-12-09T22:54:10.227Z,47.29
2022-12-09T22:56:39.985Z,47.21
2022-12-09T22:59:07.756Z,47.43
2022-12-09T23:01:37.493Z,47.38
2022-12-09T23:04:07.226Z,47.44
2022-12-09T23:06:37.826Z,47.07
2022-12-09T23:09:14.998Z,47.04
2022-12-09T23:11:42.760Z,47.36
2022-12-09T23:14:10.559Z,47.20
2022-12-09T23:16:38.218Z,46.99
2022-12-09T23:19:06.005Z,47.21
2022-12-09T23:21:36.682Z,47.00
2022-12-09T23:24:22.551Z,47.04
2022-12-09T23:26:55.901Z,47.29
2022-12-09T23:29:23.667Z,47.35
2022-12-09T23:31:51.632Z,47.42
2022-12-09T23:34:19.555Z,47.23
2022-12-09T23:36:47.492Z,47.34
2022-12-09T23:39:17.735Z,47.38
2022-12-09T23:41:46.456Z,47.71
2022-12-09T23:44:20.053Z,47.80
2022-12-09T23:46:48.086Z,47.50
2022-12-09T23:49:16.346Z,47.44
2022-12-09T23:51:44.730Z,47.17
2022-12-09T23:54:14.827Z,47.16
2022-12-09T23:56:48.055Z,47.33
2022-12-09T23:59:18.186Z,47.23
